San Martin de los Andes, Argentina
Current Conditions -  °F | °C
As of 8:00 PM on Saturday 25 Oct 2014 (Local Time) from SAZS Reporting Station
Clear Clear  
Wind Chill: 16°   Ceiling: Unl
Heat Index: 16°   Visibility: 6mi
Dew Point: -1°   Wind: 17mph
Humidity: 31%   Direction: 320°NW
Pressure: 29.85"   Gusts: NA
Location:  40.16°S, 71.36°W
Report Text: SAZS 252300Z 32015KT CAVOK 16/M01 Q1011
Loading
Personal Weather Stations






























Interactive Weather Map
Tropical Storm Tracking
New forecast layout! Learn more

10-Day Weather Forecast

Advertisements
Track Severe Weather on mobile